createdAt,value
2023-01-11T00:00:39.421Z,1.27
2023-01-11T00:03:08.173Z,2.15
2023-01-11T00:05:38.419Z,2.63
2023-01-11T00:08:09.022Z,4.10
2023-01-11T00:10:39.284Z,0.50
2023-01-11T00:13:13.726Z,2.70
2023-01-11T00:15:47.169Z,2.65
2023-01-11T00:18:17.976Z,1.50
2023-01-11T00:20:49.876Z,2.42
2023-01-11T00:23:19.833Z,6.65
2023-01-11T00:25:47.351Z,1.60
2023-01-11T00:28:16.230Z,1.95
2023-01-11T00:30:46.693Z,2.17
2023-01-11T00:33:16.836Z,1.95
2023-01-11T00:35:46.102Z,2.10
2023-01-11T00:38:35.584Z,2.10
2023-01-11T00:41:29.726Z,1.98
2023-01-11T00:44:16.115Z,2.75
2023-01-11T00:47:01.851Z,2.05
2023-01-11T00:49:31.808Z,3.10
2023-01-11T00:52:05.530Z,0.25
2023-01-11T00:54:37.825Z,1.35
2023-01-11T00:57:06.527Z,0.35
2023-01-11T00:59:36.029Z,1.15
2023-01-11T01:02:04.738Z,2.78
2023-01-11T01:04:32.345Z,3.88
2023-01-11T01:07:00.203Z,4.65
2023-01-11T01:09:40.289Z,2.22
2023-01-11T01:12:10.548Z,1.60
2023-01-11T01:14:39.443Z,2.33
2023-01-11T01:17:10.467Z,0.75
2023-01-11T01:19:38.932Z,1.40
2023-01-11T01:22:09.871Z,1.13
2023-01-11T01:24:40.773Z,0.68
2023-01-11T01:27:15.638Z,2.72
2023-01-11T01:29:45.265Z,1.83
2023-01-11T01:34:57.100Z,0.50
2023-01-11T01:37:24.938Z,1.42
2023-01-11T01:39:54.057Z,1.85
2023-01-11T01:42:24.664Z,0.68
2023-01-11T01:44:56.522Z,2.63
2023-01-11T01:47:27.421Z,4.25
2023-01-11T01:49:55.148Z,0.95
2023-01-11T01:52:29.189Z,0.90
2023-01-11T01:54:59.756Z,0.28
2023-01-11T01:57:33.320Z,0.80
2023-01-11T02:00:06.469Z,1.02
2023-01-11T02:02:37.617Z,1.50
2023-01-11T02:05:06.814Z,1.30
2023-01-11T02:07:37.866Z,2.83
2023-01-11T02:10:10.765Z,0.95
2023-01-11T02:12:41.935Z,1.55
2023-01-11T02:15:12.175Z,1.42
2023-01-11T02:17:40.151Z,0.93
2023-01-11T02:22:45.033Z,2.03
2023-01-11T02:25:34.662Z,2.80
2023-01-11T02:28:09.657Z,2.60
2023-01-11T02:30:42.807Z,1.38
2023-01-11T02:33:20.537Z,2.25
2023-01-11T02:35:51.322Z,2.00
2023-01-11T02:38:23.489Z,0.75
2023-01-11T02:40:53.801Z,2.00
2023-01-11T02:43:45.471Z,2.13
2023-01-11T02:46:15.813Z,1.33
2023-01-11T02:48:51.195Z,4.00
2023-01-11T02:51:34.379Z,1.63
2023-01-11T02:54:04.301Z,3.13
2023-01-11T02:56:42.920Z,2.35
2023-01-11T02:59:13.111Z,6.13
2023-01-11T03:01:47.737Z,2.65
2023-01-11T03:04:26.013Z,1.33
2023-01-11T03:07:02.976Z,3.35
2023-01-11T03:09:37.385Z,1.45
2023-01-11T03:12:36.006Z,1.27
2023-01-11T03:15:13.379Z,2.25
2023-01-11T03:17:45.996Z,1.10
2023-01-11T03:20:20.196Z,3.70
2023-01-11T03:22:54.165Z,2.50
2023-01-11T03:25:28.926Z,2.70
2023-01-11T03:28:07.289Z,1.15
2023-01-11T03:30:42.284Z,1.58
2023-01-11T03:33:17.965Z,1.63
2023-01-11T03:35:52.939Z,3.30
2023-01-11T03:38:23.860Z,3.28
2023-01-11T03:40:53.639Z,4.18
2023-01-11T03:43:26.787Z,3.20
2023-01-11T03:45:57.738Z,1.50
2023-01-11T03:48:31.672Z,3.53
2023-01-11T03:51:00.427Z,1.45
2023-01-11T03:53:30.645Z,2.75
2023-01-11T03:55:59.495Z,2.28
2023-01-11T03:58:27.565Z,1.50
2023-01-11T04:00:56.923Z,0.52
2023-01-11T04:03:27.049Z,0.90
2023-01-11T04:05:57.796Z,1.17
2023-01-11T04:08:25.349Z,4.45
2023-01-11T04:10:52.754Z,4.45
2023-01-11T04:13:22.273Z,1.52
2023-01-11T04:15:49.808Z,2.60
2023-01-11T04:18:19.171Z,5.78
2023-01-11T04:20:47.575Z,0.85
2023-01-11T04:23:15.120Z,0.25
2023-01-11T04:25:47.971Z,0.50
2023-01-11T04:28:16.675Z,4.45
2023-01-11T04:30:45.952Z,1.00
2023-01-11T04:33:14.546Z,0.85
2023-01-11T04:35:48.649Z,2.15
2023-01-11T04:38:19.312Z,1.45
2023-01-11T04:40:52.940Z,0.40
2023-01-11T04:43:21.699Z,5.07
2023-01-11T04:45:49.629Z,0.70
2023-01-11T04:48:21.233Z,3.22
2023-01-11T04:50:50.895Z,1.88
2023-01-11T04:53:24.155Z,0.68
2023-01-11T04:55:53.475Z,1.20
2023-01-11T04:58:23.182Z,3.92
2023-01-11T05:00:50.835Z,0.65
2023-01-11T05:03:19.514Z,0.98
2023-01-11T05:05:58.122Z,2.47
2023-01-11T05:08:28.623Z,0.60
2023-01-11T05:10:56.717Z,6.72
2023-01-11T05:16:09.653Z,0.77
2023-01-11T05:18:37.514Z,3.15
2023-01-11T05:21:07.131Z,3.15
2023-01-11T05:23:40.241Z,2.00
2023-01-11T05:26:10.917Z,1.05
2023-01-11T05:28:40.697Z,0.85
2023-01-11T05:31:09.710Z,1.73
2023-01-11T05:33:42.527Z,3.58
2023-01-11T05:36:13.502Z,2.25
2023-01-11T05:38:44.994Z,1.42
2023-01-11T05:41:14.879Z,0.90
2023-01-11T05:46:25.464Z,0.80
2023-01-11T05:48:59.218Z,2.45
2023-01-11T05:51:36.074Z,1.40
2023-01-11T05:54:06.124Z,2.00
2023-01-11T05:56:45.371Z,1.50
2023-01-11T05:59:13.784Z,1.45
2023-01-11T06:04:17.244Z,1.90
2023-01-11T06:06:46.093Z,1.08
2023-01-11T06:09:13.458Z,1.35
2023-01-11T06:11:43.889Z,3.85
2023-01-11T06:14:14.378Z,1.15
2023-01-11T06:16:41.916Z,5.43
2023-01-11T06:19:11.746Z,1.50
2023-01-11T06:21:41.197Z,0.88
2023-01-11T06:24:12.807Z,0.80
2023-01-11T06:26:40.359Z,2.50
2023-01-11T06:29:08.232Z,4.88
2023-01-11T06:34:05.333Z,3.35
2023-01-11T06:36:41.717Z,0.57
2023-01-11T06:39:10.712Z,0.90
2023-01-11T06:41:38.179Z,3.80
2023-01-11T06:44:06.196Z,0.88
2023-01-11T06:46:34.218Z,11.18
2023-01-11T06:49:02.744Z,3.60
2023-01-11T06:51:30.085Z,1.33
2023-01-11T06:53:57.425Z,1.83
2023-01-11T06:56:28.063Z,2.65
2023-01-11T06:58:55.392Z,2.75
2023-01-11T07:01:24.904Z,4.60
2023-01-11T07:03:52.457Z,5.47
2023-01-11T07:06:19.812Z,1.33
2023-01-11T07:08:47.185Z,7.43
2023-01-11T07:11:14.621Z,3.50
2023-01-11T07:13:43.353Z,1.88
2023-01-11T07:16:10.744Z,2.47
2023-01-11T07:18:38.218Z,2.75
2023-01-11T07:21:05.665Z,2.90
2023-01-11T07:23:32.985Z,1.10
2023-01-11T07:26:00.475Z,2.13
2023-01-11T07:28:30.429Z,1.63
2023-01-11T07:31:03.410Z,3.10
2023-01-11T07:33:32.160Z,2.17
2023-01-11T07:36:05.280Z,1.92
2023-01-11T07:38:33.126Z,2.53
2023-01-11T07:41:24.317Z,3.38
2023-01-11T07:43:53.209Z,3.33
2023-01-11T07:46:23.505Z,4.47
2023-01-11T07:48:50.956Z,5.05
2023-01-11T07:51:22.030Z,13.48
2023-01-11T07:53:49.602Z,5.40
2023-01-11T07:56:19.026Z,8.27
2023-01-11T07:58:49.056Z,4.72
2023-01-11T08:01:16.491Z,7.47
2023-01-11T08:03:45.519Z,7.13
2023-01-11T08:06:16.358Z,10.43
2023-01-11T08:11:30.881Z,5.70
2023-01-11T08:14:17.830Z,11.15
2023-01-11T08:16:45.207Z,7.75
2023-01-11T08:19:16.961Z,6.45
2023-01-11T08:21:47.120Z,12.57
2023-01-11T08:24:14.730Z,5.70
2023-01-11T08:26:44.212Z,8.35
2023-01-11T08:29:13.142Z,8.98
2023-01-11T08:31:44.228Z,6.68
2023-01-11T08:34:14.693Z,8.45
2023-01-11T08:36:44.881Z,10.13
2023-01-11T08:39:12.493Z,7.70
2023-01-11T08:41:44.056Z,9.27
2023-01-11T08:44:14.698Z,11.82
2023-01-11T08:46:42.359Z,10.05
2023-01-11T08:49:16.782Z,11.23
2023-01-11T08:51:48.428Z,16.30
2023-01-11T08:54:17.533Z,11.93
2023-01-11T08:56:45.236Z,14.90
2023-01-11T08:59:15.356Z,10.85
2023-01-11T09:01:42.942Z,12.25
2023-01-11T09:04:24.712Z,14.65
2023-01-11T09:06:56.920Z,16.05
2023-01-11T09:09:27.539Z,16.05
2023-01-11T09:11:57.290Z,21.98
2023-01-11T09:14:26.077Z,14.65
2023-01-11T09:16:55.079Z,15.73
2023-01-11T09:19:25.771Z,11.80
2023-01-11T09:21:57.905Z,23.40
2023-01-11T09:24:30.970Z,31.40
2023-01-11T09:27:00.819Z,21.75
2023-01-11T09:29:28.306Z,22.33
2023-01-11T09:31:55.879Z,28.50
2023-01-11T09:34:25.254Z,24.35
2023-01-11T09:36:56.629Z,15.27
2023-01-11T09:39:28.814Z,28.70
2023-01-11T09:42:15.124Z,20.67
2023-01-11T09:44:45.984Z,20.63
2023-01-11T09:47:15.235Z,24.75
2023-01-11T09:49:45.674Z,26.13
2023-01-11T09:52:26.202Z,24.23
2023-01-11T09:54:55.321Z,28.52
2023-01-11T09:57:29.244Z,25.80
2023-01-11T10:00:06.548Z,21.00
2023-01-11T10:02:38.536Z,20.98
2023-01-11T10:05:28.509Z,24.83
2023-01-11T10:18:39.329Z,37.95
2023-01-11T10:19:39.485Z,36.38
2023-01-11T10:22:14.373Z,29.58
2023-01-11T10:24:45.349Z,28.13
2023-01-11T10:27:20.411Z,27.02
2023-01-11T10:29:58.267Z,33.95
2023-01-11T10:32:45.723Z,28.70
2023-01-11T10:35:32.855Z,31.00
2023-01-11T10:38:21.885Z,31.00
2023-01-11T10:41:08.411Z,33.03
2023-01-11T10:43:40.685Z,27.50
2023-01-11T10:46:16.280Z,32.72
2023-01-11T10:48:47.130Z,19.60
2023-01-11T10:51:19.622Z,47.10
2023-01-11T10:53:55.295Z,28.35
2023-01-11T10:56:33.282Z,17.10
2023-01-11T10:59:13.131Z,18.00
2023-01-11T11:01:51.490Z,20.60
2023-01-11T11:04:24.716Z,25.33
2023-01-11T11:07:04.274Z,30.17
2023-01-11T11:09:36.087Z,37.07
2023-01-11T11:12:07.991Z,14.75
2023-01-11T11:14:40.519Z,21.00
2023-01-11T11:17:13.949Z,25.98
2023-01-11T11:19:42.048Z,24.40
2023-01-11T11:22:11.198Z,40.70
2023-01-11T11:24:40.142Z,23.90
2023-01-11T11:27:10.600Z,26.77
2023-01-11T11:29:43.623Z,27.35
2023-01-11T11:32:18.464Z,25.92
2023-01-11T11:34:50.081Z,25.75
2023-01-11T11:37:35.890Z,17.40
2023-01-11T11:40:05.060Z,21.85
2023-01-11T11:42:32.425Z,18.20
2023-01-11T11:45:14.224Z,16.83
2023-01-11T11:47:43.496Z,32.92
2023-01-11T11:50:43.717Z,33.13
2023-01-11T11:53:36.493Z,22.55
2023-01-11T11:56:08.104Z,24.83
2023-01-11T11:58:43.942Z,24.10
2023-01-11T12:01:22.396Z,21.83
2023-01-11T12:03:59.852Z,21.33
2023-01-11T12:06:30.464Z,20.52
2023-01-11T12:08:59.125Z,30.40
2023-01-11T12:11:32.947Z,26.58
2023-01-11T12:14:04.912Z,26.83
2023-01-11T12:16:41.737Z,26.88
2023-01-11T12:19:24.201Z,24.90
2023-01-11T12:21:51.639Z,21.45
2023-01-11T12:24:19.540Z,20.75
2023-01-11T12:29:21.799Z,16.95
2023-01-11T12:31:56.395Z,17.48
2023-01-11T12:34:35.816Z,21.60
2023-01-11T12:37:08.116Z,18.35
2023-01-11T12:39:41.835Z,21.05
2023-01-11T12:42:32.296Z,18.42
2023-01-11T12:45:05.700Z,24.58
2023-01-11T12:47:47.859Z,19.15
2023-01-11T12:50:19.586Z,11.98
2023-01-11T12:52:54.629Z,23.48
2023-01-11T12:55:36.772Z,16.63
2023-01-11T12:58:08.700Z,18.25
2023-01-11T13:00:55.517Z,12.95
2023-01-11T13:03:38.880Z,14.10
2023-01-11T13:06:10.934Z,22.33
2023-01-11T13:08:46.102Z,17.75
2023-01-11T13:11:37.950Z,14.35
2023-01-11T13:14:24.693Z,15.52
2023-01-11T13:16:55.564Z,14.88
2023-01-11T13:19:26.327Z,16.95
2023-01-11T13:22:04.481Z,19.05
2023-01-11T13:24:33.029Z,15.75
2023-01-11T13:27:06.474Z,15.45
2023-01-11T13:29:37.858Z,20.95
2023-01-11T13:32:07.606Z,15.20
2023-01-11T13:34:37.858Z,18.45
2023-01-11T13:37:07.795Z,17.85
2023-01-11T13:39:39.548Z,18.88
2023-01-11T13:42:11.770Z,13.10
2023-01-11T13:44:44.522Z,15.82
2023-01-11T13:47:14.269Z,14.43
2023-01-11T13:49:59.595Z,19.65
2023-01-11T13:52:37.609Z,15.23
2023-01-11T13:55:20.828Z,27.23
2023-01-11T13:57:55.769Z,18.25
2023-01-11T14:00:27.389Z,24.80
2023-01-11T14:03:01.715Z,17.38
2023-01-11T14:05:34.607Z,19.52
2023-01-11T14:08:13.001Z,21.90
2023-01-11T14:10:44.338Z,22.77
2023-01-11T14:13:48.396Z,20.63
2023-01-11T14:16:20.260Z,24.08
2023-01-11T14:18:55.930Z,22.63
2023-01-11T14:21:26.123Z,18.88
2023-01-11T14:23:58.537Z,28.92
2023-01-11T14:26:39.297Z,27.85
2023-01-11T14:29:18.763Z,21.48
2023-01-11T14:32:04.185Z,25.75
2023-01-11T14:34:50.097Z,23.40
2023-01-11T14:37:41.078Z,31.65
2023-01-11T14:40:38.775Z,25.73
2023-01-11T14:43:26.695Z,25.00
2023-01-11T14:45:59.791Z,27.65
2023-01-11T14:48:36.094Z,26.33
2023-01-11T14:51:18.055Z,27.05
2023-01-11T14:53:47.474Z,27.33
2023-01-11T14:56:37.412Z,23.83
2023-01-11T14:59:05.656Z,19.23
2023-01-11T15:02:10.338Z,32.60
2023-01-11T15:04:38.656Z,19.30
2023-01-11T15:07:22.251Z,24.52
2023-01-11T15:09:50.467Z,21.85
2023-01-11T15:12:20.215Z,29.40
2023-01-11T15:14:48.642Z,22.38
2023-01-11T15:17:38.681Z,25.63
2023-01-11T15:20:10.571Z,21.00
2023-01-11T15:22:40.967Z,14.50
2023-01-11T15:25:20.646Z,16.17
2023-01-11T15:27:49.861Z,18.85
2023-01-11T15:30:32.129Z,25.48
2023-01-11T15:33:14.442Z,16.92
2023-01-11T15:35:42.096Z,20.30
2023-01-11T15:38:11.723Z,19.55
2023-01-11T15:40:40.119Z,32.65
2023-01-11T15:43:26.410Z,16.15
2023-01-11T15:46:24.347Z,22.70
2023-01-11T15:48:59.652Z,24.00
2023-01-11T15:51:46.565Z,22.85
2023-01-11T15:54:23.983Z,26.00
2023-01-11T15:57:04.550Z,38.65
2023-01-11T15:59:52.203Z,24.65
2023-01-11T16:04:48.880Z,23.33
2023-01-11T16:07:21.640Z,24.23
2023-01-11T16:09:59.159Z,26.08
2023-01-11T16:12:47.190Z,22.42
2023-01-11T16:15:26.000Z,23.02
2023-01-11T16:17:55.397Z,21.98
2023-01-11T16:20:24.403Z,20.88
2023-01-11T16:22:53.569Z,17.60
2023-01-11T16:25:24.512Z,33.83
2023-01-11T16:27:52.838Z,24.02
2023-01-11T16:30:21.052Z,24.58
2023-01-11T16:32:49.857Z,27.35
2023-01-11T16:35:18.270Z,34.88
2023-01-11T16:37:46.692Z,25.95
2023-01-11T16:40:20.477Z,23.27
2023-01-11T16:42:53.220Z,19.30
2023-01-11T16:45:24.493Z,35.97
2023-01-11T16:48:04.651Z,31.98
2023-01-11T16:50:32.763Z,34.78
2023-01-11T16:55:36.864Z,32.55
2023-01-11T16:58:06.221Z,28.23
2023-01-11T17:00:38.213Z,20.85
2023-01-11T17:03:18.657Z,33.10
2023-01-11T17:06:02.910Z,22.67
2023-01-11T17:08:32.380Z,34.53
2023-01-11T17:11:02.033Z,28.42
2023-01-11T17:13:53.380Z,30.40
2023-01-11T17:16:22.430Z,30.48
2023-01-11T17:18:51.322Z,27.10
2023-01-11T17:21:20.247Z,34.15
2023-01-11T17:23:49.241Z,23.67
2023-01-11T17:26:21.860Z,24.33
2023-01-11T17:28:50.865Z,18.42
2023-01-11T17:31:21.053Z,21.83
2023-01-11T17:33:48.962Z,22.63
2023-01-11T17:38:45.193Z,31.88
2023-01-11T17:41:35.411Z,17.45
2023-01-11T17:44:20.693Z,16.73
2023-01-11T17:46:48.686Z,23.27
2023-01-11T17:51:43.634Z,19.83
2023-01-11T17:54:20.362Z,16.38
2023-01-11T17:56:52.059Z,18.20
2023-01-11T17:59:21.543Z,9.73
2023-01-11T18:01:49.956Z,27.77
2023-01-11T18:04:19.372Z,20.13
2023-01-11T18:06:49.340Z,20.80
2023-01-11T18:09:23.208Z,19.38
2023-01-11T18:11:51.774Z,14.45
2023-01-11T18:14:20.422Z,15.18
2023-01-11T18:17:00.480Z,21.38
2023-01-11T18:19:38.736Z,22.20
2023-01-11T18:22:25.759Z,17.50
2023-01-11T18:24:55.411Z,21.08
2023-01-11T18:27:27.480Z,22.42
2023-01-11T18:29:57.610Z,13.65
2023-01-11T18:32:27.963Z,20.73
2023-01-11T18:34:55.582Z,16.02
2023-01-11T18:37:25.512Z,24.35
2023-01-11T18:39:53.760Z,17.42
2023-01-11T18:42:28.515Z,20.65
2023-01-11T18:44:55.997Z,16.88
2023-01-11T18:47:28.462Z,26.50
2023-01-11T18:49:56.584Z,23.15
2023-01-11T18:52:27.213Z,16.73
2023-01-11T18:54:59.925Z,24.13
2023-01-11T18:57:28.830Z,19.92
2023-01-11T18:59:56.615Z,20.00
2023-01-11T19:02:25.324Z,22.65
2023-01-11T19:04:56.091Z,16.88
2023-01-11T19:07:24.295Z,22.80
2023-01-11T19:09:53.150Z,25.55
2023-01-11T19:12:23.064Z,22.27
2023-01-11T19:14:52.118Z,19.38
2023-01-11T19:17:19.864Z,25.27
2023-01-11T19:19:47.599Z,17.90
2023-01-11T19:24:42.534Z,21.02
2023-01-11T19:27:10.217Z,16.02
2023-01-11T19:29:38.931Z,19.05
2023-01-11T19:32:07.935Z,15.75
2023-01-11T19:34:36.028Z,20.27
2023-01-11T19:37:05.491Z,28.20
2023-01-11T19:39:33.364Z,19.15
2023-01-11T19:42:05.083Z,20.15
2023-01-11T19:44:33.449Z,20.88
2023-01-11T19:47:10.989Z,16.20
2023-01-11T19:49:40.806Z,23.88
2023-01-11T19:52:12.509Z,15.30
2023-01-11T19:54:41.700Z,17.92
2023-01-11T19:57:09.435Z,13.65
2023-01-11T19:59:40.022Z,20.17
2023-01-11T20:02:08.185Z,31.35
2023-01-11T20:04:35.640Z,20.77
2023-01-11T20:07:05.279Z,27.13
2023-01-11T20:09:32.646Z,19.42
2023-01-11T20:12:03.086Z,29.45
2023-01-11T20:14:30.640Z,16.23
2023-01-11T20:16:58.089Z,14.25
2023-01-11T20:19:32.162Z,21.65
2023-01-11T20:21:59.574Z,16.05
2023-01-11T20:24:29.913Z,25.02
2023-01-11T20:26:58.220Z,21.13
2023-01-11T20:29:28.779Z,22.63
2023-01-11T20:31:58.230Z,13.10
2023-01-11T20:34:32.180Z,15.77
2023-01-11T20:37:00.037Z,26.15
2023-01-11T20:39:32.438Z,15.23
2023-01-11T20:42:02.236Z,10.23
2023-01-11T20:44:34.143Z,17.48
2023-01-11T20:47:04.704Z,18.08
2023-01-11T20:49:32.160Z,19.88
2023-01-11T20:51:59.738Z,17.08
2023-01-11T20:54:33.858Z,22.33
2023-01-11T20:57:06.996Z,14.80
2023-01-11T20:59:35.943Z,20.17
2023-01-11T21:02:10.601Z,14.18
2023-01-11T21:04:38.347Z,17.73
2023-01-11T21:07:07.109Z,23.25
2023-01-11T21:09:36.266Z,16.05
2023-01-11T21:12:03.849Z,12.35
2023-01-11T21:14:35.959Z,16.02
2023-01-11T21:17:05.511Z,19.55
2023-01-11T21:19:33.096Z,17.15
2023-01-11T21:22:00.539Z,13.00
2023-01-11T21:24:30.599Z,20.40
2023-01-11T21:26:59.579Z,19.42
2023-01-11T21:29:27.086Z,18.92
2023-01-11T21:31:54.675Z,27.02
2023-01-11T21:34:26.974Z,25.55
2023-01-11T21:36:54.359Z,23.08
2023-01-11T21:39:22.102Z,30.85
2023-01-11T21:41:59.563Z,19.55
2023-01-11T21:44:32.427Z,17.67
2023-01-11T21:47:00.585Z,18.05
2023-01-11T21:49:28.156Z,28.85
2023-01-11T21:52:01.062Z,19.75
2023-01-11T21:54:28.928Z,18.95
2023-01-11T21:56:59.194Z,19.33
2023-01-11T21:59:26.993Z,30.63
2023-01-11T22:01:57.919Z,22.77
2023-01-11T22:04:25.364Z,13.77
2023-01-11T22:06:54.356Z,22.73
2023-01-11T22:09:22.075Z,15.18
2023-01-11T22:11:50.883Z,32.67
2023-01-11T22:14:18.458Z,23.55
2023-01-11T22:16:45.904Z,15.50
2023-01-11T22:19:14.730Z,24.23
2023-01-11T22:21:42.349Z,27.63
2023-01-11T22:24:10.816Z,23.23
2023-01-11T22:26:39.202Z,13.52
2023-01-11T22:29:14.659Z,24.83
2023-01-11T22:31:43.105Z,20.73
2023-01-11T22:34:10.737Z,24.80
2023-01-11T22:36:39.478Z,18.13
2023-01-11T22:39:07.078Z,32.33
2023-01-11T22:41:34.435Z,22.40
2023-01-11T22:44:01.810Z,17.25
2023-01-11T22:46:29.319Z,23.58
2023-01-11T22:48:56.685Z,20.58
2023-01-11T22:51:24.805Z,28.20
2023-01-11T22:53:55.401Z,25.65
2023-01-11T22:56:24.991Z,22.63
2023-01-11T22:58:52.757Z,24.85
2023-01-11T23:01:23.713Z,26.10
2023-01-11T23:03:54.048Z,8.00
2023-01-11T23:06:22.344Z,16.10
2023-01-11T23:08:49.695Z,11.25
2023-01-11T23:11:43.554Z,18.40
2023-01-11T23:14:11.353Z,14.95
2023-01-11T23:16:39.160Z,12.60
2023-01-11T23:21:38.865Z,23.17
2023-01-11T23:24:06.673Z,16.73
2023-01-11T23:26:35.658Z,19.88
2023-01-11T23:29:03.416Z,19.52
2023-01-11T23:31:42.635Z,28.65
2023-01-11T23:34:10.925Z,25.67
2023-01-11T23:36:39.806Z,25.65
2023-01-11T23:39:09.595Z,20.08
2023-01-11T23:41:56.016Z,29.08
2023-01-11T23:44:23.609Z,17.70
2023-01-11T23:47:09.112Z,28.75
2023-01-11T23:49:36.514Z,30.40
2023-01-11T23:52:05.940Z,25.88
2023-01-11T23:54:36.293Z,20.73
2023-01-11T23:57:08.248Z,24.88
2023-01-11T23:59:35.847Z,29.85
